Time;durP1;ratioP1;P1;durP2;ratioP2;P2;SDS_P1;SDS_P2;PMS_P1;PMS_P2;Temp;Humidity;BMP_temperature;BMP_pressure;BME280_temperature;BME280_humidity;BME280_pressure;Samples;Min_cycle;Max_cycle;Signal;HPM_P1;HPM_P2
2021/10/19 00:01:58;;;;;;;36.10;20.85;;;6.30;99.90;;;;;;5053174;28;20389;-68
2021/10/19 00:04:24;;;;;;;47.20;23.55;;;;;;;;;;5051831;28;20061;-68
2021/10/19 00:06:51;;;;;;;47.22;26.20;;;;;;;;;;5052367;28;20535;-68
2021/10/19 00:09:17;;;;;;;52.55;26.65;;;;;;;;;;5050490;28;20100;-68
2021/10/19 00:11:43;;;;;;;44.28;25.25;;;;;;;;;;5052199;28;20029;-68
2021/10/19 00:14:09;;;;;;;43.75;23.95;;;;;;;;;;5051629;28;20112;-68
2021/10/19 00:16:35;;;;;;;44.55;24.52;;;;;;;;;;5051927;28;20021;-68
2021/10/19 00:19:02;;;;;;;41.28;22.88;;;;;;;;;;5052314;28;20048;-68
2021/10/19 00:21:28;;;;;;;41.63;24.05;;;;;;;;;;5051098;28;20033;-68
2021/10/19 00:23:54;;;;;;;42.35;24.80;;;;;;;;;;5051661;28;20090;-68
2021/10/19 00:26:20;;;;;;;46.25;25.77;;;;;;;;;;5051230;28;20027;-68
2021/10/19 00:28:46;;;;;;;40.63;23.33;;;;;;;;;;5051959;28;20462;-68
2021/10/19 00:31:12;;;;;;;38.08;22.45;;;;;;;;;;5051434;28;20029;-68
2021/10/19 00:33:38;;;;;;;36.30;22.25;;;;;;;;;;5051898;28;20029;-68
2021/10/19 00:36:04;;;;;;;44.22;23.25;;;;;;;;;;5052133;28;20024;-68
2021/10/19 00:38:30;;;;;;;35.17;22.15;;;;;;;;;;5050932;28;20029;-68
2021/10/19 00:40:56;;;;;;;39.53;22.88;;;;;;;;;;5051830;28;20032;-68
2021/10/19 00:43:24;;;;;;;33.47;20.98;;;;;;;;;;5050421;28;20044;-68
2021/10/19 00:45:51;;;;;;;34.85;21.40;;;;;;;;;;5051931;28;20041;-68
2021/10/19 00:48:18;;;;;;;37.10;23.05;;;;;;;;;;5050975;28;20028;-68
2021/10/19 00:50:46;;;;;;;34.78;20.80;;;;;;;;;;5051687;28;20024;-68
2021/10/19 00:53:13;;;;;;;37.08;21.85;;;;;;;;;;5050889;28;20030;-68
2021/10/19 00:55:39;;;;;;;43.38;23.50;;;;;;;;;;5051445;28;20579;-68
2021/10/19 00:58:08;;;;;;;40.75;22.52;;;;;;;;;;5051309;28;20446;-68
2021/10/19 01:00:34;;;;;;;35.55;21.63;;;;;;;;;;5051321;28;20448;-68
2021/10/19 01:03:00;;;;;;;43.63;23.08;;;;;;;;;;5051769;28;20453;-68
2021/10/19 01:05:27;;;;;;;34.92;19.95;;;;;;;;;;5050487;28;20029;-68
2021/10/19 01:07:53;;;;;;;31.95;19.50;;;;;;;;;;5051598;28;20044;-68
2021/10/19 01:10:20;;;;;;;33.75;20.48;;;;;;;;;;5050426;28;20366;-68
2021/10/19 01:12:46;;;;;;;39.10;23.58;;;;;;;;;;5051255;28;20053;-68
2021/10/19 01:15:14;;;;;;;41.10;22.15;;;;;;;;;;5050625;28;20474;-68
2021/10/19 01:17:40;;;;;;;38.22;22.25;;;;;;;;;;5051353;28;20029;-68
2021/10/19 01:20:14;;;;;;;40.80;23.63;;;;;;;;;;5051546;28;20028;-68
2021/10/19 01:22:40;;;;;;;48.72;24.70;;;;;;;;;;5055505;28;20025;-68
2021/10/19 01:25:06;;;;;;;44.78;23.50;;;;;;;;;;5054807;28;20112;-68
2021/10/19 01:27:32;;;;;;;37.03;21.15;;;;;;;;;;5054619;28;20021;-68
2021/10/19 01:29:58;;;;;;;34.70;21.67;;;;;;;;;;5055065;28;20462;-68
2021/10/19 01:32:24;;;;;;;42.88;22.73;;;;;;;;;;5054477;28;20408;-68
2021/10/19 01:34:50;;;;;;;35.40;20.65;;;;;;;;;;5055502;28;20078;-68
2021/10/19 01:37:16;;;;;;;35.50;20.50;;;;;;;;;;5054062;28;20021;-68
2021/10/19 01:39:42;;;;;;;40.38;22.40;;;;;;;;;;5054850;28;20103;-68
2021/10/19 01:42:08;;;;;;;43.40;21.95;;;;;;;;;;5054092;28;20029;-68
2021/10/19 01:44:34;;;;;;;39.33;22.38;;;;;;;;;;5054783;28;20455;-68
2021/10/19 01:47:00;;;;;;;35.33;20.90;;;;;;;;;;5054924;28;20036;-68
2021/10/19 01:49:26;;;;;;;40.10;21.83;;;;;;;;;;5054344;28;20213;-69
2021/10/19 01:51:52;;;;;;;41.42;21.40;;;;;;;;;;5054895;28;20052;-68
2021/10/19 01:54:18;;;;;;;34.03;20.98;;;;;;;;;;5053845;28;20486;-69
2021/10/19 01:56:44;;;;;;;36.55;21.50;;;;;;;;;;5054443;28;20017;-68
2021/10/19 01:59:10;;;;;;;34.33;20.48;;;;;;;;;;5053849;28;20017;-69
2021/10/19 02:01:38;;;;;;;32.20;19.10;;;;;;;;;;5054264;28;20032;-68
2021/10/19 02:04:04;;;;;;;33.33;19.30;;;;;;;;;;5054603;28;20134;-68
2021/10/19 02:06:30;;;;;;;29.27;18.73;;;;;;;;;;5053837;28;20987;-68
2021/10/19 02:08:56;;;;;;;30.10;19.27;;;;;;;;;;5054655;28;20029;-68
2021/10/19 02:11:22;;;;;;;36.58;21.23;;;;;;;;;;5053625;28;20017;-68
2021/10/19 02:13:48;;;;;;;34.88;21.33;;;;;;;;;;5054184;28;20493;-68
2021/10/19 02:16:14;;;;;;;36.63;20.95;;;;;;;;;;5053717;28;20025;-68
2021/10/19 02:18:40;;;;;;;34.97;20.33;;;;;;;;;;5054631;28;20469;-68
2021/10/19 02:21:06;;;;;;;31.52;20.15;;;;;;;;;;5053120;28;20104;-68
2021/10/19 02:23:32;;;;;;;31.35;19.45;;;;;;;;;;5053025;28;20123;-68
2021/10/19 02:25:58;;;;;;;31.52;19.77;;;;;;;;;;5054074;28;20033;-68
2021/10/19 02:28:24;;;;;;;29.75;19.23;;;;;;;;;;5053458;28;20025;-68
2021/10/19 02:30:50;;;;;;;31.13;20.27;;;;;;;;;;5054528;28;20020;-68
2021/10/19 02:33:16;;;;;;;32.22;21.02;;;;;;;;;;5052411;28;20078;-68
2021/10/19 02:35:42;;;;;;;34.15;20.90;;;;;;;;;;5053724;28;20546;-68
2021/10/19 02:38:08;;;;;;;31.58;19.30;;;;;;;;;;5054223;28;20028;-68
2021/10/19 02:40:35;;;;;;;32.70;21.13;;;;;;;;;;5053547;28;20424;-68
2021/10/19 02:43:01;;;;;;;30.33;20.67;;;;;;;;;;5053629;28;20045;-68
2021/10/19 02:45:27;;;;;;;28.25;19.58;;;;;;;;;;5053091;28;20159;-68
2021/10/19 02:47:53;;;;;;;30.15;19.08;;;;;;;;;;5053415;28;20025;-68
2021/10/19 02:50:19;;;;;;;28.88;17.73;;;;;;;;;;5053039;28;20040;-68
2021/10/19 02:52:45;;;;;;;26.20;16.58;;;;;;;;;;5053610;28;20021;-68
2021/10/19 02:55:16;;;;;;;21.73;14.88;;;;;;;;;;5053201;28;20116;-68
2021/10/19 02:57:44;;;;;;;23.67;15.75;;;;;;;;;;5053653;28;20157;-68
2021/10/19 03:00:10;;;;;;;23.27;16.25;;;;;;;;;;5053283;28;20025;-68
2021/10/19 03:02:36;;;;;;;26.35;17.88;;;;;;;;;;5051962;28;20422;-68
2021/10/19 03:05:02;;;;;;;25.08;17.95;;;;;;;;;;5053285;28;20138;-68
2021/10/19 03:07:28;;;;;;;24.63;17.70;;;;;;;;;;5052745;28;20081;-68
2021/10/19 03:09:54;;;;;;;26.05;17.35;;;;;;;;;;5053317;28;20056;-68
2021/10/19 03:12:20;;;;;;;25.67;17.50;;;;;;;;;;5052346;28;20025;-68
2021/10/19 03:14:46;;;;;;;27.15;17.55;;;;;;;;;;5053467;28;20108;-68
2021/10/19 03:17:13;;;;;;;23.65;17.00;;;;;;;;;;5052692;28;20021;-68
2021/10/19 03:19:39;;;;;;;25.23;17.40;;;;;;;;;;5053154;28;20025;-68
2021/10/19 03:22:05;;;;;;;23.05;15.77;;;;;;;;;;5053745;28;20115;-68
2021/10/19 03:24:31;;;;;;;25.05;16.75;;;;;;;;;;5052224;28;20665;-68
2021/10/19 03:26:57;;;;;;;20.38;14.80;;;;;;;;;;5052906;28;20021;-68
2021/10/19 03:29:23;;;;;;;25.40;15.88;;;;;;;;;;5052256;28;20078;-68
2021/10/19 03:31:49;;;;;;;25.98;17.65;;;;;;;;;;5052719;28;20036;-68
2021/10/19 03:34:15;;;;;;;23.30;16.92;;;;;;;;;;5052202;28;20025;-68
2021/10/19 03:36:41;;;;;;;23.90;16.77;;;;;;;;;;5053017;28;20455;-68
2021/10/19 03:39:07;;;;;;;22.92;16.73;;;;;;;;;;5052902;28;20037;-68
2021/10/19 03:41:33;;;;;;;27.48;18.05;;;;;;;;;;5052039;28;20231;-68
2021/10/19 03:43:59;;;;;;;26.42;16.90;;;;;;;;;;5051040;28;20568;-68
2021/10/19 03:46:26;;;;;;;22.50;14.90;;;;;;;;;;5051993;28;20029;-68
2021/10/19 03:48:51;;;;;;;21.85;15.48;;;;;;;;;;5052610;28;20025;-68
2021/10/19 03:51:18;;;;;;;23.05;15.75;;;;;;;;;;5051627;28;20533;-68
2021/10/19 03:53:44;;;;;;;23.05;15.60;;;;;;;;;;5052533;28;20347;-68
2021/10/19 03:56:10;;;;;;;21.33;15.13;;;;;;;;;;5052513;28;20029;-68
2021/10/19 03:58:36;;;;;;;20.40;14.77;;;;;;;;;;5051700;28;20078;-68
2021/10/19 04:01:02;;;;;;;20.15;14.65;;;;;;;;;;5052505;28;20025;-68
2021/10/19 04:03:28;;;;;;;22.50;16.65;;;;;;;;;;5051559;28;20021;-67
2021/10/19 04:05:54;;;;;;;25.55;16.30;;;;;;;;;;5051233;28;20075;-69
2021/10/19 04:08:20;;;;;;;23.23;15.98;;;;;;;;;;5051296;28;20381;-68
2021/10/19 04:10:46;;;;;;;21.33;15.75;;;;;;;;;;5051131;28;20025;-68
2021/10/19 04:13:13;;;;;;;22.83;15.68;;;;;;;;;;5051940;28;20029;-68
2021/10/19 04:15:38;;;;;;;24.33;15.85;;;;;;;;;;5051754;28;20040;-67
2021/10/19 04:18:05;;;;;;;21.00;14.95;;;;;;;;;;5050776;28;20021;-67
2021/10/19 04:20:31;;;;;;;19.98;14.68;;;;;;;;;;5051067;28;20100;-68
2021/10/19 04:22:57;;;;;;;19.13;14.13;;;;;;;;;;5052061;28;20484;-69
2021/10/19 04:25:23;;;;;;;21.02;14.85;;;;;;;;;;5051054;28;20068;-68
2021/10/19 04:27:49;;;;;;;18.85;13.77;;;;;;;;;;5052116;28;20029;-68
2021/10/19 04:30:15;;;;;;;19.25;14.18;;;;;;;;;;5051277;28;20028;-69
2021/10/19 04:32:41;;;;;;;23.70;15.00;;;;;;;;;;5051797;28;20021;-68
2021/10/19 04:35:07;;;;;;;19.98;13.90;;;;;;;;;;5050563;28;20453;-67
2021/10/19 04:37:33;;;;;;;19.23;14.10;;;;;;;;;;5051069;28;20033;-68
2021/10/19 04:39:59;;;;;;;22.35;13.98;;;;;;;;;;5051857;28;20031;-68
2021/10/19 04:42:29;;;;;;;22.92;15.02;;;;;;;;;;5050679;28;20052;-68
2021/10/19 04:44:55;;;;;;;21.98;14.45;;;;;;;;;;5051549;28;20068;-68
2021/10/19 04:47:22;;;;;;;20.63;14.63;;;;;;;;;;5050884;28;20075;-68
2021/10/19 04:49:48;;;;;;;23.70;15.68;;;;;;;;;;5051687;28;20063;-68
2021/10/19 04:52:14;;;;;;;21.77;14.30;;;;;;;;;;5051281;28;20056;-68
2021/10/19 04:54:40;;;;;;;19.92;14.48;;;;;;;;;;5051161;28;20381;-68
2021/10/19 04:57:06;;;;;;;19.88;14.32;;;;;;;;;;5051635;28;20025;-68
2021/10/19 04:59:32;;;;;;;20.38;12.73;;;;;;;;;;5050548;28;20374;-68
2021/10/19 05:01:58;;;;;;;23.98;14.73;;;;;;;;;;5051281;28;20040;-68
2021/10/19 05:04:24;;;;;;;20.50;14.65;;;;;;;;;;5050645;28;20060;-68
2021/10/19 05:06:50;;;;;;;19.05;13.98;;;;;;;;;;5050837;28;20422;-68
2021/10/19 05:09:16;;;;;;;19.25;15.32;;;;;;;;;;5050643;28;20053;-68
2021/10/19 05:11:42;;;;;;;21.35;14.45;;;;;;;;;;5051009;28;20075;-68
2021/10/19 05:14:08;;;;;;;16.90;13.05;;;;;;;;;;5050658;28;20028;-68
2021/10/19 05:16:34;;;;;;;18.73;13.73;;;;;;;;;;5050545;28;20068;-68
2021/10/19 05:19:00;;;;;;;18.13;13.82;;;;;;;;;;5051494;28;20021;-68
2021/10/19 05:21:26;;;;;;;17.23;12.75;;;;;;;;;;5050691;28;20025;-69
2021/10/19 05:23:52;;;;;;;19.95;14.73;;;;;;;;;;5051324;28;20033;-67
2021/10/19 05:26:18;;;;;;;18.85;14.05;;;;;;;;;;5050679;28;20017;-67
2021/10/19 05:28:44;;;;;;;22.70;14.00;;;;;;;;;;5051414;28;20055;-67
2021/10/19 05:31:10;;;;;;;24.98;16.27;;;;;;;;;;5050940;28;20075;-68
2021/10/19 05:33:36;;;;;;;19.77;14.90;;;;;;;;;;5050568;28;20187;-68
2021/10/19 05:36:02;;;;;;;20.70;14.23;;;;;;;;;;5051018;28;20071;-66
2021/10/19 05:38:32;;;;;;;19.20;13.57;;;;;;;;;;5050462;28;20025;-71
2021/10/19 05:40:57;;;;;;;24.33;15.45;;;;;;;;;;5051301;28;20013;-73
2021/10/19 05:43:23;;;;;;;18.65;13.43;;;;;;;;;;5050092;28;20136;-68
2021/10/19 05:45:50;;;;;;;19.08;13.82;;;;;;;;;;5048605;28;21308;-70
2021/10/19 05:48:16;;;;;;;23.38;15.60;;;;;;;;;;5048781;28;20512;-73
2021/10/19 05:50:41;;;;;;;21.40;14.15;;;;;;;;;;5049791;28;20021;-73
2021/10/19 05:53:07;;;;;;;18.83;14.70;;;;;;;;;;5050926;28;20021;-72
2021/10/19 05:55:34;;;;;;;19.10;14.77;;;;;;;;;;5050148;28;20428;-74
2021/10/19 05:58:00;;;;;;;22.48;15.27;;;;;;;;;;5050911;28;20021;-72
2021/10/19 06:00:26;;;;;;;18.90;13.38;;;;;;;;;;5049831;28;20029;-70
2021/10/19 06:02:52;;;;;;;21.42;15.40;;;;;;;;;;5050597;28;20040;-70
2021/10/19 06:05:18;;;;;;;19.35;13.70;;;;;;;;;;5049961;28;20029;-69
2021/10/19 06:07:44;;;;;;;18.13;13.93;;;;;;;;;;5051520;28;20025;-71
2021/10/19 06:10:10;;;;;;;20.25;13.88;;;;;;;;;;5054267;28;20052;-69
2021/10/19 06:12:36;;;;;;;26.45;14.77;;;;;;;;;;5053071;28;20949;-68
2021/10/19 06:15:03;;;;;;;22.27;14.32;;;;;;;;;;5049156;28;20112;-69
2021/10/19 06:17:29;;;;;;;17.83;13.43;;;;;;;;;;5053797;28;20041;-69
2021/10/19 06:19:54;;;;;;;19.40;14.48;;;;;;;;;;5054507;28;20080;-68
2021/10/19 06:22:21;;;;;;;21.80;13.73;;;;;;;;;;5052780;28;20029;-67
2021/10/19 06:24:47;;;;;;;21.80;14.82;;;;;;;;;;5053731;28;20064;-67
2021/10/19 06:27:13;;;;;;;22.02;14.43;;;;;;;;;;5053813;28;20075;-68
2021/10/19 06:29:39;;;;;;;19.88;14.30;;;;;;;;;;5052551;28;20641;-67
2021/10/19 06:32:05;;;;;;;18.05;13.25;;;;;;;;;;5053657;28;20500;-67
2021/10/19 06:34:31;;;;;;;17.75;12.68;;;;;;;;;;5052801;28;20040;-67
2021/10/19 06:36:57;;;;;;;20.02;13.68;;;;;;;;;;5053476;28;20025;-67
2021/10/19 06:39:23;;;;;;;21.13;15.02;;;;;;;;;;5052563;28;20446;-67
2021/10/19 06:41:49;;;;;;;21.33;14.45;;;;;;;;;;5053198;28;20033;-67
2021/10/19 06:44:16;;;;;;;19.88;13.40;;;;;;;;;;5059128;28;20110;-67
2021/10/19 06:46:42;;;;;;;18.17;13.27;;;;;;;;;;5061799;28;20033;-67
2021/10/19 06:49:08;;;;;;;21.70;13.25;;;;;;;;;;5053337;28;20127;-67
2021/10/19 06:51:34;;;;;;;18.40;13.00;;;;;;;;;;5052085;28;20036;-67
2021/10/19 06:54:00;;;;;;;24.05;13.45;;;;;;;;;;5053138;28;20025;-67
2021/10/19 06:56:26;;;;;;;21.48;13.40;;;;;;;;;;5051987;28;20021;-67
2021/10/19 06:58:52;;;;;;;18.58;13.32;;;;;;;;;;5053135;28;20063;-68
2021/10/19 07:01:19;;;;;;;22.85;14.30;;;;;;;;;;5053103;28;20082;-67
2021/10/19 07:03:45;;;;;;;16.98;12.43;;;;;;;;;;5052238;28;20122;-70
2021/10/19 07:06:12;;;;;;;17.73;12.05;;;;;;;;;;5052778;28;20032;-68
2021/10/19 07:08:38;;;;;;;18.27;12.45;;;;;;;;;;5052244;28;20029;-68
2021/10/19 07:11:05;;;;;;;19.15;13.07;;;;;;;;;;5052935;28;20378;-68
2021/10/19 07:13:31;;;;;;;18.63;12.40;;;;;;;;;;5051046;28;20110;-67
2021/10/19 07:15:58;;;;;;;19.05;12.15;;;;;;;;;;5044158;28;20496;-67
2021/10/19 07:18:25;;;;;;;16.80;12.45;;;;;;;;;;5048073;28;20375;-68
2021/10/19 07:20:51;;;;;;;21.90;14.88;;;;;;;;;;5052443;28;20492;-68
2021/10/19 07:23:18;;;;;;;18.85;13.75;;;;;;;;;;5053311;28;20421;-68
2021/10/19 07:25:44;;;;;;;18.67;14.13;;;;;;;;;;5051627;28;20126;-68
2021/10/19 07:28:10;;;;;;;20.05;14.45;;;;;;;;;;5052478;28;20029;-68
2021/10/19 07:30:36;;;;;;;20.92;15.48;;;;;;;;;;5052032;28;20024;-68
2021/10/19 07:33:02;;;;;;;22.77;15.65;;;;;;;;;;5052496;28;20331;-68
2021/10/19 07:35:28;;;;;;;19.42;13.02;;;;;;;;;;5050505;28;20179;-67
2021/10/19 07:37:54;;;;;;;18.73;13.55;;;;;;;;;;5052844;28;20018;-68
2021/10/19 07:40:21;;;;;;;21.70;12.63;;;;;;;;;;5052418;28;20021;-69
2021/10/19 07:42:47;;;;;;;20.90;13.65;;;;;;;;;;5051237;28;20045;-68
2021/10/19 07:45:14;;;;;;;17.60;12.07;;;;;;;;;;5055378;28;20028;-67
2021/10/19 07:47:42;;;;;;;18.65;13.32;;;;;;;;;;5071602;28;20457;-68
2021/10/19 07:50:08;;;;;;;18.83;11.30;;;;;;;;;;5072513;28;20036;-68
2021/10/19 07:52:34;;;;;;;18.45;12.50;;;;;;;;;;5071797;28;20021;-67
2021/10/19 07:55:00;;;;;;;16.70;11.77;;;;;;;;;;5072594;28;20106;-67
2021/10/19 07:57:26;;;;;;;15.43;12.48;;;;;;;;;;5071641;28;20056;-68
2021/10/19 07:59:52;;;;;;;20.33;11.68;;;;;;;;;;5072007;28;20492;-68
2021/10/19 08:02:18;;;;;;;15.98;12.75;;;;;;;;;;5072013;28;20028;-68
2021/10/19 08:04:44;;;;;;;19.75;11.52;;;;;;;;;;5071003;28;20032;-67
2021/10/19 08:07:10;;;;;;;18.73;11.70;;;;;;;;;;5071764;28;20108;-68
2021/10/19 08:09:36;;;;;;;17.00;11.43;;;;;;;;;;5071126;28;20043;-74
2021/10/19 08:12:02;;;;;;;18.35;11.68;;;;;;;;;;5071223;28;20509;-72
2021/10/19 08:14:28;;;;;;;28.13;11.95;;;;;;;;;;5043000;28;20352;-72
2021/10/19 08:16:55;;;;;;;20.63;11.98;;;;;;;;;;5049668;28;20485;-73
2021/10/19 08:19:21;;;;;;;15.65;10.65;;;;;;;;;;5051529;28;20032;-73
2021/10/19 08:21:47;;;;;;;17.10;11.27;;;;;;;;;;5050794;28;20028;-68
2021/10/19 08:24:13;;;;;;;17.50;10.80;;;;;;;;;;5051399;28;20036;-68
2021/10/19 08:26:39;;;;;;;20.33;11.80;;;;;;;;;;5050002;28;20378;-68
2021/10/19 08:29:05;;;;;;;14.60;10.18;;;;;;;;;;5051558;28;20074;-68
2021/10/19 08:31:32;;;;;;;20.17;10.45;;;;;;;;;;5050370;28;20096;-69
2021/10/19 08:33:58;;;;;;;19.27;11.55;;;;;;;;;;5051681;28;20065;-68
2021/10/19 08:36:25;;;;;;;19.92;11.00;;;;;;;;;;5050920;28;20024;-67
2021/10/19 08:38:51;;;;;;;15.82;10.00;;;;;;;;;;5051664;28;20056;-68
2021/10/19 08:41:17;;;;;;;16.42;10.45;;;;;;;;;;5051237;28;20112;-68
2021/10/19 08:43:44;;;;;;;13.55;9.95;;;;;;;;;;5061941;28;20798;-68
2021/10/19 08:46:11;;;;;;;16.50;11.02;;;;;;;;;;5071115;28;20033;-68
2021/10/19 08:48:38;;;;;;;16.23;10.25;;;;;;;;;;5070787;28;20076;-68
2021/10/19 08:51:04;;;;;;;19.05;11.43;;;;;;;;;;5070935;28;20025;-68
2021/10/19 08:53:30;;;;;;;16.70;11.63;;;;;;;;;;5069605;28;20021;-68
2021/10/19 08:55:56;;;;;;;19.98;11.40;;;;;;;;;;5070959;28;20021;-68
2021/10/19 08:58:22;;;;;;;19.55;12.43;;;;;;;;;;5063506;28;20025;-67
2021/10/19 09:00:48;;;;;;;23.70;12.30;;;;;;;;;;5043511;28;20017;-69
2021/10/19 09:03:21;;;;;;;8.05;5.65;;;;;;;;;;5051577;28;20478;-67
2021/10/19 09:05:49;;;;;;;5.63;3.72;;;;;;;;;;5050646;28;20254;-66
2021/10/19 09:08:18;;;;;;;8.75;3.20;;;;;;;;;;5050815;28;20118;-67
2021/10/19 09:10:45;;;;;;;7.10;3.08;;;;;;;;;;5050302;28;20025;-66
2021/10/19 09:13:15;;;;;;;5.03;3.13;;;;;;;;;;5050931;28;20044;-67
2021/10/19 09:15:43;;;;;;;;;;;;;;;;;;5050574;28;20035;-67
2021/10/19 09:18:10;;;;;;;4.10;2.83;;;;;;;;;;5050982;28;19909;-67
2021/10/19 09:20:39;;;;;;;4.70;3.25;;;;;;;;;;5050214;28;20037;-68
2021/10/19 09:23:05;;;;;;;3.90;3.22;;;;;;;;;;5050736;28;20458;-66
2021/10/19 09:25:32;;;;;;;4.43;3.50;;;;;;;;;;5049086;28;20450;-66
2021/10/19 09:28:00;;;;;;;4.97;3.83;;;;;;;;;;5050636;28;20052;-66
2021/10/19 09:30:35;;;;;;;4.13;3.40;;;;;;;;;;5067951;28;20024;-66
2021/10/19 09:33:03;;;;;;;7.13;3.45;;;;;;;;;;5052136;28;20144;-66
2021/10/19 09:35:30;;;;;;;3.90;3.28;;;;;;;;;;5049837;28;20083;-66
2021/10/19 09:38:00;;;;;;;4.75;3.88;;;;;;;;;;5051050;28;20112;-66
2021/10/19 09:40:30;;;;;;;5.18;3.55;;;;;;;;;;5050580;28;20021;-66
2021/10/19 09:43:04;;;;;;;4.45;3.47;;;;;;;;;;5052403;28;20417;-66
2021/10/19 09:45:30;;;;;;;6.15;3.42;;;;;;;;;;5054005;28;20117;-66
2021/10/19 09:47:57;;;;;;;5.35;3.75;;;;;;;;;;5054475;28;20021;-67
2021/10/19 09:50:24;;;;;;;6.47;3.47;;;;;;;;;;5054626;28;20102;-66
2021/10/19 09:52:51;;;;;;;5.50;3.55;;;;;;;;;;5053919;28;20114;-66
2021/10/19 09:55:17;;;;;;;7.80;3.97;;;;;;;;;;5054828;28;20382;-66
2021/10/19 09:57:43;;;;;;;6.28;3.65;;;;;;;;;;5053769;28;20029;-67
2021/10/19 10:00:10;;;;;;;5.38;3.30;;;;;;;;;;5052242;28;20032;-67
2021/10/19 10:02:36;;;;;;;4.70;3.55;;;;;;;;;;5053614;28;20029;-66
2021/10/19 10:05:03;;;;;;;6.13;3.50;;;;;;;;;;5054684;28;20032;-67
2021/10/19 10:07:30;;;;;;;5.97;3.58;;;;;;;;;;5053153;28;20029;-66
2021/10/19 10:09:57;;;;;;;5.38;3.30;;;;;;;;;;5054455;28;20066;-67
2021/10/19 10:12:27;;;;;;;5.45;3.40;;;;;;;;;;5052621;28;20100;-67
2021/10/19 10:14:53;;;;;;;4.50;3.22;;;;;;;;;;5054162;28;20036;-67
2021/10/19 10:17:19;;;;;;;3.03;2.55;;;;;;;;;;5061032;28;20025;-66
2021/10/19 10:19:45;;;;;;;4.55;3.20;;;;;;;;;;5069239;28;20072;-66
2021/10/19 10:22:18;;;;;;;3.13;2.58;;;;;;;;;;5054271;28;20029;-67
2021/10/19 10:24:45;;;;;;;3.00;2.40;;;;;;;;;;5053164;28;20532;-67
2021/10/19 10:27:25;;;;;;;4.35;2.83;;;;;;;;;;5053793;28;20038;-66
2021/10/19 10:29:51;;;;;;;3.77;2.70;;;;;;;;;;5065512;28;20865;-66
2021/10/19 10:32:22;;;;;;;7.65;2.97;;;;;;;;;;5073867;28;20326;-66
2021/10/19 10:34:59;;;;;;;3.78;2.60;;;;;;;;;;5072801;28;20591;-67
2021/10/19 10:37:34;;;;;;;2.90;2.40;;;;;;;;;;5073821;28;20031;-66
2021/10/19 10:40:00;;;;;;;3.65;2.60;;;;;;;;;;5073651;28;20074;-66
2021/10/19 10:42:34;;;;;;;4.40;2.38;;;;;;;;;;5073387;28;20052;-67
2021/10/19 10:45:00;;;;;;;4.00;2.70;;;;;;;;;;5073549;28;20502;-66
2021/10/19 10:47:26;;;;;;;3.85;2.47;;;;;;;;;;5071446;28;20037;-66
2021/10/19 10:49:52;;;;;;;6.72;2.33;;;;;;;;;;5052531;28;20059;-67
2021/10/19 10:52:19;;;;;;;4.10;2.85;;;;;;;;;;5053162;28;20509;-67
2021/10/19 10:54:52;;;;;;;2.58;2.20;;;;;;;;;;5052212;28;20036;-66
2021/10/19 10:57:18;;;;;;;5.78;2.55;;;;;;;;;;5053427;28;20032;-67
2021/10/19 10:59:51;;;;;;;5.78;2.58;;;;;;;;;;5063737;28;20028;-66
2021/10/19 11:02:17;;;;;;;3.28;2.80;;;;;;;;;;5073578;28;20049;-67
2021/10/19 11:04:47;;;;;;;2.40;2.20;;;;;;;;;;5072640;28;20485;-66
2021/10/19 11:07:13;;;;;;;2.63;2.42;;;;;;;;;;5073464;28;20025;-67
2021/10/19 11:09:40;;;;;;;3.35;2.80;;;;;;;;;;5072457;28;20029;-66
2021/10/19 11:12:06;;;;;;;5.38;3.15;;;;;;;;;;5073100;28;20476;-66
2021/10/19 11:14:32;;;;;;;4.85;3.03;;;;;;;;;;5071411;28;20473;-67
2021/10/19 11:16:58;;;;;;;6.45;2.78;;;;;;;;;;5073210;28;20028;-67
2021/10/19 11:19:28;;;;;;;5.43;2.85;;;;;;;;;;5071465;28;20548;-67
2021/10/19 11:21:55;;;;;;;3.47;3.17;;;;;;;;;;5052994;28;20025;-67
2021/10/19 11:24:23;;;;;;;3.45;3.08;;;13.90;99.90;;;;;;5052741;28;20021;-67
2021/10/19 11:26:49;;;;;;;3.40;3.03;;;13.90;99.90;;;;;;5052341;28;20068;-66
2021/10/19 11:29:15;;;;;;;5.40;3.10;;;13.90;99.90;;;;;;5060176;28;20370;-67
2021/10/19 11:31:41;;;;;;;4.03;2.85;;;14.00;99.90;;;;;;5072539;28;20032;-67
2021/10/19 11:34:07;;;;;;;5.60;2.65;;;14.10;99.90;;;;;;5072977;28;20029;-67
2021/10/19 11:36:34;;;;;;;4.28;2.88;;;14.10;99.90;;;;;;5071892;28;20024;-66
2021/10/19 11:39:05;;;;;;;4.40;3.08;;;14.20;99.90;;;;;;5072145;28;20024;-67
2021/10/19 11:41:31;;;;;;;4.00;2.60;;;14.20;99.90;;;;;;5072288;28;20024;-66
2021/10/19 11:43:59;;;;;;;3.85;2.60;;;14.30;99.90;;;;;;5072513;28;20040;-68
2021/10/19 11:46:29;;;;;;;3.83;3.20;;;14.30;99.90;;;;;;5072945;28;20028;-67
2021/10/19 11:49:00;;;;;;;5.20;3.05;;;14.40;99.90;;;;;;5072492;28;20454;-68
2021/10/19 11:51:27;;;;;;;5.55;3.17;;;14.50;99.90;;;;;;5072620;28;20041;-67
2021/10/19 11:53:59;;;;;;;5.00;3.00;;;14.60;99.90;;;;;;5071513;28;20036;-67
2021/10/19 11:56:25;;;;;;;6.70;3.35;;;14.80;99.90;;;;;;5072894;28;20096;-67
2021/10/19 11:58:53;;;;;;;4.40;2.80;;;14.90;99.90;;;;;;5070855;28;20593;-67
2021/10/19 12:01:24;;;;;;;2.75;2.35;;;15.10;99.90;;;;;;5072464;28;20020;-67
2021/10/19 12:04:01;;;;;;;4.05;2.72;;;15.20;99.90;;;;;;5071482;28;20032;-67
2021/10/19 12:06:29;;;;;;;3.75;2.72;;;15.20;99.90;;;;;;5071687;28;20032;-67
2021/10/19 12:08:57;;;;;;;2.88;2.53;;;15.20;99.90;;;;;;5071319;28;20078;-67
2021/10/19 12:11:25;;;;;;;4.53;3.05;;;15.30;99.90;;;;;;5072801;28;20035;-67
2021/10/19 12:13:59;;;;;;;3.95;2.60;;;15.40;99.90;;;;;;5071850;28;20141;-68
2021/10/19 12:16:28;;;;;;;3.10;2.58;;;15.40;99.90;;;;;;5072155;28;20036;-67
2021/10/19 12:18:55;;;;;;;4.43;3.15;;;15.40;99.90;;;;;;5071275;28;20028;-67
2021/10/19 12:21:21;;;;;;;3.13;2.60;;;15.40;99.90;;;;;;5054627;28;20344;-67
2021/10/19 12:23:52;;;;;;;3.42;2.80;;;15.30;99.90;;;;;;5051029;28;20032;-67
2021/10/19 12:26:20;;;;;;;4.63;2.95;;;15.30;99.90;;;;;;5051842;28;20469;-67
2021/10/19 12:28:51;;;;;;;3.38;2.47;;;15.30;99.90;;;;;;5054171;28;20024;-67
2021/10/19 12:31:19;;;;;;;3.13;2.80;;;15.20;99.90;;;;;;5071583;28;20462;-67
2021/10/19 12:33:56;;;;;;;3.53;2.85;;;15.20;99.90;;;;;;5071006;28;20028;-67
2021/10/19 12:36:27;;;;;;;3.60;2.65;;;15.00;99.90;;;;;;5071878;28;20078;-68
2021/10/19 12:38:54;;;;;;;2.50;2.30;;;14.90;99.90;;;;;;5070809;28;20020;-67
2021/10/19 12:41:20;;;;;;;4.82;2.30;;;14.70;99.90;;;;;;5071814;28;20025;-67
2021/10/19 12:43:48;;;;;;;3.65;3.13;;;14.60;99.90;;;;;;5070597;28;20048;-67
2021/10/19 12:46:19;;;;;;;4.82;2.35;;;14.60;99.90;;;;;;5071786;28;20136;-68
2021/10/19 12:48:45;;;;;;;3.17;2.13;;;14.60;99.90;;;;;;5070968;28;20021;-67
2021/10/19 12:51:18;;;;;;;4.32;2.50;;;14.60;99.90;;;;;;5071702;28;20063;-67
2021/10/19 12:53:49;;;;;;;5.50;2.55;;;14.80;99.90;;;;;;5071058;28;20028;-67
2021/10/19 12:56:16;;;;;;;3.15;2.65;;;14.90;99.90;;;;;;5071620;28;20547;-67
2021/10/19 12:58:42;;;;;;;5.47;2.78;;;15.00;99.90;;;;;;5070782;28;20028;-67
2021/10/19 13:01:09;;;;;;;5.18;2.80;;;15.20;99.90;;;;;;5071336;28;20337;-67
2021/10/19 13:03:35;;;;;;;5.07;2.72;;;15.30;99.90;;;;;;5071101;28;20151;-67
2021/10/19 13:06:05;;;;;;;3.47;2.42;;;15.40;99.90;;;;;;5071479;28;20111;-67
2021/10/19 13:08:32;;;;;;;;;;;15.50;99.90;;;;;;5071590;28;20154;-67
2021/10/19 13:10:59;;;;;;;3.72;2.63;;;15.70;99.90;;;;;;5070722;28;19940;-68
2021/10/19 13:13:24;;;;;;;4.38;2.90;;;15.90;99.90;;;;;;5071288;28;20032;-67
2021/10/19 13:15:50;;;;;;;4.00;2.95;;;16.00;99.90;;;;;;5070615;28;20040;-67
2021/10/19 13:18:16;;;;;;;3.72;2.70;;;16.30;99.90;;;;;;5075193;28;20059;-67
2021/10/19 13:20:41;;;;;;;4.85;2.47;;;16.50;99.90;;;;;;5062018;28;20046;-66
2021/10/19 13:23:07;;;;;;;4.75;3.10;;;16.70;99.90;;;;;;5055382;28;20104;-66
2021/10/19 13:25:33;;;;;;;3.08;2.25;;;16.80;99.90;;;;;;5054903;28;20477;-66
2021/10/19 13:27:58;;;;;;;3.58;2.80;;;16.90;99.90;;;;;;5054815;28;20037;-67
2021/10/19 13:30:24;;;;;;;4.78;2.78;;;16.90;99.90;;;;;;5071812;28;20032;-67
2021/10/19 13:32:52;;;;;;;5.30;2.97;;;16.90;99.90;;;;;;5064452;28;20085;-67
2021/10/19 13:35:22;;;;;;;4.65;2.38;;;16.80;99.90;;;;;;5043929;28;20060;-68
2021/10/19 13:37:48;;;;;;;3.90;2.85;;;16.80;99.90;;;;;;5054201;28;20033;-67
2021/10/19 13:40:16;;;;;;;3.50;2.72;;;16.70;99.90;;;;;;5055086;28;20060;-68
2021/10/19 13:42:43;;;;;;;5.25;2.92;;;16.80;99.90;;;;;;5053890;28;20048;-67
2021/10/19 13:45:10;;;;;;;3.20;2.90;;;16.70;99.90;;;;;;5054820;28;20486;-67
2021/10/19 13:47:36;;;;;;;4.93;2.92;;;16.70;99.90;;;;;;5054493;28;20370;-68
2021/10/19 13:50:04;;;;;;;3.45;2.70;;;16.70;99.90;;;;;;5054224;28;20021;-68
2021/10/19 13:52:30;;;;;;;3.13;2.53;;;16.70;99.90;;;;;;5054916;28;20057;-68
2021/10/19 13:54:55;;;;;;;4.22;3.20;;;16.80;99.90;;;;;;5053999;28;20059;-67
2021/10/19 13:57:22;;;;;;;3.92;2.88;;;16.80;99.90;;;;;;5054466;28;20061;-67
2021/10/19 13:59:48;;;;;;;6.78;3.30;;;16.90;99.90;;;;;;5064579;28;20793;-67
2021/10/19 14:02:14;;;;;;;3.38;2.83;;;16.90;99.90;;;;;;5074688;28;20103;-68